Heho Airport


Codes: VYHH/HEH
Name: Heho Airport
City: Heho
Country: Myanmar [Burma]
Elevation: 3858 ft.
Wikipedia:

Photos at Heho Airport


   Photos courtesy of SpottingLog. You can add your own sightings and photos by signing up for a free trial today.



No photos found.

Weather at Heho Airport


Time (UTC)DescriptionTempratureWindCloud coverageVisibilityPressureHumidity
15-Apr-2024 18:00Clear Sky23°C4 mph, SW0%10000m1011hPa25%
15-Apr-2024 21:00Clear Sky23°C4 mph, SW1%10000m1011hPa28%
16-Apr-2024 00:00Clear Sky22°C4 mph, SW3%10000m1012hPa34%
16-Apr-2024 03:00Clear Sky31°C11 mph, SW0%10000m1011hPa19%
16-Apr-2024 06:00Clear Sky34°C16 mph, W2%10000m1008hPa17%
16-Apr-2024 09:00Broken Clouds33°C18 mph, SW55%10000m1006hPa19%
16-Apr-2024 12:00Scattered Clouds29°C11 mph, W48%10000m1007hPa21%
16-Apr-2024 15:00Few Clouds25°C4 mph, SW24%10000m1010hPa29%
16-Apr-2024 18:00Few Clouds23°C7 mph, SW12%10000m1009hPa40%
16-Apr-2024 21:00Clear Sky21°C4 mph, SW8%10000m1009hPa47%
17-Apr-2024 00:00Clear Sky22°C4 mph, SW7%10000m1011hPa41%
17-Apr-2024 03:00Clear Sky31°C9 mph, SW0%10000m1010hPa21%
17-Apr-2024 06:00Clear Sky34°C16 mph, W2%10000m1008hPa18%
17-Apr-2024 09:00Overcast Clouds32°C16 mph, W100%10000m1006hPa18%
17-Apr-2024 12:00Broken Clouds27°C9 mph, SW52%10000m1007hPa25%
17-Apr-2024 15:00Clear Sky24°C4 mph, W0%10000m1009hPa35%
17-Apr-2024 18:00Clear Sky22°C7 mph, SW5%10000m1009hPa48%
17-Apr-2024 21:00Clear Sky20°C4 mph, SW6%10000m1009hPa55%
18-Apr-2024 00:00Clear Sky21°C4 mph, S6%10000m1010hPa52%
18-Apr-2024 03:00Scattered Clouds30°C9 mph, W30%10000m1010hPa33%
18-Apr-2024 06:00Scattered Clouds32°C16 mph, W29%10000m1007hPa23%
18-Apr-2024 09:00Clear Sky33°C16 mph, W5%10000m1004hPa21%
18-Apr-2024 12:00Clear Sky28°C9 mph, W4%10000m1005hPa29%
18-Apr-2024 15:00Broken Clouds24°C9 mph, SW68%10000m1008hPa45%
18-Apr-2024 18:00Broken Clouds22°C7 mph, SW65%10000m1008hPa53%
18-Apr-2024 21:00Clear Sky20°C4 mph, SW4%10000m1007hPa61%
19-Apr-2024 00:00Few Clouds21°C4 mph, SW18%10000m1009hPa61%
19-Apr-2024 03:00Clear Sky30°C11 mph, W4%10000m1008hPa32%
19-Apr-2024 06:00Clear Sky33°C16 mph, W3%10000m1006hPa23%
19-Apr-2024 09:00Clear Sky33°C18 mph, W8%10000m1004hPa22%
19-Apr-2024 12:00Few Clouds28°C11 mph, SW19%10000m1004hPa32%
19-Apr-2024 15:00Scattered Clouds26°C13 mph, SW29%10000m1007hPa42%
19-Apr-2024 18:00Few Clouds22°C4 mph, SW18%10000m1007hPa60%
19-Apr-2024 21:00Few Clouds20°C4 mph, SW20%10000m1007hPa70%
20-Apr-2024 00:00Clear Sky20°C4 mph, SW10%10000m1009hPa68%
20-Apr-2024 03:00Clear Sky30°C11 mph, W0%10000m1008hPa31%
20-Apr-2024 06:00Clear Sky33°C16 mph, W0%10000m1006hPa22%
20-Apr-2024 09:00Clear Sky32°C16 mph, SW1%10000m1004hPa24%
20-Apr-2024 12:00Clear Sky28°C11 mph, SW10%10000m1005hPa34%
20-Apr-2024 15:00Broken Clouds27°C13 mph, SW57%10000m1007hPa40%